sensor_id;sensor_type;location;lat;lon;timestamp;P1;durP1;ratioP1;P2;durP2;ratioP2
60370;SDS011;48550;40.588;49.684;2023-06-04T00:01:06;15.85;;;4.90;;
60370;SDS011;48550;40.588;49.684;2023-06-04T00:03:32;11.55;;;5.85;;
60370;SDS011;48550;40.588;49.684;2023-06-04T00:05:59;14.90;;;4.63;;
60370;SDS011;48550;40.588;49.684;2023-06-04T00:08:25;10.43;;;4.35;;
60370;SDS011;48550;40.588;49.684;2023-06-04T00:10:51;11.55;;;4.60;;
60370;SDS011;48550;40.588;49.684;2023-06-04T00:13:17;14.80;;;4.80;;
60370;SDS011;48550;40.588;49.684;2023-06-04T00:15:43;11.80;;;4.97;;
60370;SDS011;48550;40.588;49.684;2023-06-04T00:18:08;15.20;;;4.80;;
60370;SDS011;48550;40.588;49.684;2023-06-04T00:20:36;12.27;;;4.80;;
60370;SDS011;48550;40.588;49.684;2023-06-04T00:23:02;8.80;;;4.85;;
60370;SDS011;48550;40.588;49.684;2023-06-04T00:25:28;13.98;;;5.10;;
60370;SDS011;48550;40.588;49.684;2023-06-04T00:27:53;15.82;;;4.93;;
60370;SDS011;48550;40.588;49.684;2023-06-04T00:30:19;16.63;;;5.22;;
60370;SDS011;48550;40.588;49.684;2023-06-04T00:32:45;17.08;;;4.72;;
60370;SDS011;48550;40.588;49.684;2023-06-04T00:35:12;13.43;;;4.32;;
60370;SDS011;48550;40.588;49.684;2023-06-04T00:37:37;14.40;;;4.78;;
60370;SDS011;48550;40.588;49.684;2023-06-04T00:40:03;16.30;;;4.72;;
60370;SDS011;48550;40.588;49.684;2023-06-04T00:42:30;14.82;;;5.15;;
60370;SDS011;48550;40.588;49.684;2023-06-04T00:44:57;13.02;;;4.97;;
60370;SDS011;48550;40.588;49.684;2023-06-04T00:47:23;16.55;;;5.30;;
60370;SDS011;48550;40.588;49.684;2023-06-04T00:49:49;12.98;;;4.45;;
60370;SDS011;48550;40.588;49.684;2023-06-04T00:52:16;14.52;;;4.65;;
60370;SDS011;48550;40.588;49.684;2023-06-04T00:54:42;12.82;;;4.72;;
60370;SDS011;48550;40.588;49.684;2023-06-04T00:57:08;15.23;;;5.10;;
60370;SDS011;48550;40.588;49.684;2023-06-04T00:59:36;13.25;;;4.85;;
60370;SDS011;48550;40.588;49.684;2023-06-04T01:02:14;12.35;;;5.00;;
60370;SDS011;48550;40.588;49.684;2023-06-04T01:07:26;10.40;;;4.32;;
60370;SDS011;48550;40.588;49.684;2023-06-04T01:09:55;13.57;;;4.68;;
60370;SDS011;48550;40.588;49.684;2023-06-04T01:12:21;10.18;;;4.40;;
60370;SDS011;48550;40.588;49.684;2023-06-04T01:14:47;15.55;;;4.68;;
60370;SDS011;48550;40.588;49.684;2023-06-04T01:17:20;15.60;;;4.57;;
60370;SDS011;48550;40.588;49.684;2023-06-04T01:20:01;12.63;;;4.15;;
60370;SDS011;48550;40.588;49.684;2023-06-04T01:25:34;14.43;;;5.53;;
60370;SDS011;48550;40.588;49.684;2023-06-04T01:28:05;15.40;;;4.95;;
60370;SDS011;48550;40.588;49.684;2023-06-04T01:30:36;11.35;;;4.97;;
60370;SDS011;48550;40.588;49.684;2023-06-04T01:33:08;11.82;;;4.60;;
60370;SDS011;48550;40.588;49.684;2023-06-04T01:35:35;10.73;;;4.72;;
60370;SDS011;48550;40.588;49.684;2023-06-04T01:38:02;11.18;;;4.72;;
60370;SDS011;48550;40.588;49.684;2023-06-04T01:40:28;11.55;;;4.30;;
60370;SDS011;48550;40.588;49.684;2023-06-04T01:42:54;9.00;;;4.35;;
60370;SDS011;48550;40.588;49.684;2023-06-04T01:45:21;11.93;;;4.75;;
60370;SDS011;48550;40.588;49.684;2023-06-04T01:47:47;13.73;;;4.95;;
60370;SDS011;48550;40.588;49.684;2023-06-04T01:50:13;12.63;;;5.18;;
60370;SDS011;48550;40.588;49.684;2023-06-04T01:52:39;9.68;;;4.70;;
60370;SDS011;48550;40.588;49.684;2023-06-04T01:55:10;15.00;;;5.25;;
60370;SDS011;48550;40.588;49.684;2023-06-04T01:57:38;17.60;;;5.78;;
60370;SDS011;48550;40.588;49.684;2023-06-04T02:00:05;11.43;;;5.90;;
60370;SDS011;48550;40.588;49.684;2023-06-04T02:02:35;12.45;;;5.75;;
60370;SDS011;48550;40.588;49.684;2023-06-04T02:05:02;20.90;;;6.35;;
60370;SDS011;48550;40.588;49.684;2023-06-04T02:07:36;12.57;;;5.72;;
60370;SDS011;48550;40.588;49.684;2023-06-04T02:10:04;15.35;;;6.40;;
60370;SDS011;48550;40.588;49.684;2023-06-04T02:12:31;10.40;;;5.70;;
60370;SDS011;48550;40.588;49.684;2023-06-04T02:14:57;15.10;;;5.60;;
60370;SDS011;48550;40.588;49.684;2023-06-04T02:17:22;14.35;;;5.63;;
60370;SDS011;48550;40.588;49.684;2023-06-04T02:19:48;17.83;;;5.53;;
60370;SDS011;48550;40.588;49.684;2023-06-04T02:22:17;14.82;;;6.15;;
60370;SDS011;48550;40.588;49.684;2023-06-04T02:24:44;11.82;;;6.07;;
60370;SDS011;48550;40.588;49.684;2023-06-04T02:27:10;23.17;;;7.07;;
60370;SDS011;48550;40.588;49.684;2023-06-04T02:29:37;17.83;;;6.75;;
60370;SDS011;48550;40.588;49.684;2023-06-04T02:32:04;13.77;;;6.55;;
60370;SDS011;48550;40.588;49.684;2023-06-04T02:34:31;19.33;;;7.07;;
60370;SDS011;48550;40.588;49.684;2023-06-04T02:36:56;17.90;;;6.47;;
60370;SDS011;48550;40.588;49.684;2023-06-04T02:39:23;13.77;;;6.78;;
60370;SDS011;48550;40.588;49.684;2023-06-04T02:41:49;16.55;;;6.82;;
60370;SDS011;48550;40.588;49.684;2023-06-04T02:44:15;14.27;;;7.18;;
60370;SDS011;48550;40.588;49.684;2023-06-04T02:46:40;18.40;;;8.00;;
60370;SDS011;48550;40.588;49.684;2023-06-04T02:49:06;29.23;;;7.13;;
60370;SDS011;48550;40.588;49.684;2023-06-04T02:51:32;20.67;;;7.50;;
60370;SDS011;48550;40.588;49.684;2023-06-04T02:53:58;16.52;;;7.63;;
60370;SDS011;48550;40.588;49.684;2023-06-04T02:56:24;16.77;;;8.45;;
60370;SDS011;48550;40.588;49.684;2023-06-04T02:58:54;16.63;;;8.50;;
60370;SDS011;48550;40.588;49.684;2023-06-04T03:01:24;16.45;;;7.82;;
60370;SDS011;48550;40.588;49.684;2023-06-04T03:03:51;20.20;;;8.23;;
60370;SDS011;48550;40.588;49.684;2023-06-04T03:06:18;20.02;;;7.65;;
60370;SDS011;48550;40.588;49.684;2023-06-04T03:08:46;17.90;;;7.82;;
60370;SDS011;48550;40.588;49.684;2023-06-04T03:11:13;22.95;;;8.50;;
60370;SDS011;48550;40.588;49.684;2023-06-04T03:13:39;17.35;;;7.80;;
60370;SDS011;48550;40.588;49.684;2023-06-04T03:16:05;14.27;;;7.30;;
60370;SDS011;48550;40.588;49.684;2023-06-04T03:18:39;14.25;;;7.53;;
60370;SDS011;48550;40.588;49.684;2023-06-04T03:21:06;22.67;;;7.50;;
60370;SDS011;48550;40.588;49.684;2023-06-04T03:23:32;21.23;;;8.32;;
60370;SDS011;48550;40.588;49.684;2023-06-04T03:26:00;17.00;;;8.07;;
60370;SDS011;48550;40.588;49.684;2023-06-04T03:28:27;20.02;;;7.60;;
60370;SDS011;48550;40.588;49.684;2023-06-04T03:30:53;21.35;;;7.45;;
60370;SDS011;48550;40.588;49.684;2023-06-04T03:33:18;32.58;;;7.38;;
60370;SDS011;48550;40.588;49.684;2023-06-04T03:35:44;20.25;;;6.90;;
60370;SDS011;48550;40.588;49.684;2023-06-04T03:38:10;24.80;;;6.82;;
60370;SDS011;48550;40.588;49.684;2023-06-04T03:40:36;17.85;;;6.47;;
60370;SDS011;48550;40.588;49.684;2023-06-04T03:43:02;17.20;;;5.93;;
60370;SDS011;48550;40.588;49.684;2023-06-04T03:45:29;18.73;;;5.70;;
60370;SDS011;48550;40.588;49.684;2023-06-04T03:47:55;20.67;;;6.72;;
60370;SDS011;48550;40.588;49.684;2023-06-04T03:50:21;19.80;;;5.72;;
60370;SDS011;48550;40.588;49.684;2023-06-04T03:52:50;15.48;;;6.30;;
60370;SDS011;48550;40.588;49.684;2023-06-04T03:55:16;21.52;;;6.60;;
60370;SDS011;48550;40.588;49.684;2023-06-04T03:57:42;14.27;;;6.60;;
60370;SDS011;48550;40.588;49.684;2023-06-04T04:00:08;15.85;;;6.78;;
60370;SDS011;48550;40.588;49.684;2023-06-04T04:02:41;17.63;;;6.65;;
60370;SDS011;48550;40.588;49.684;2023-06-04T04:05:08;21.42;;;6.15;;
60370;SDS011;48550;40.588;49.684;2023-06-04T04:07:34;13.82;;;5.93;;
60370;SDS011;48550;40.588;49.684;2023-06-04T04:10:00;18.23;;;5.60;;
60370;SDS011;48550;40.588;49.684;2023-06-04T04:12:26;20.75;;;6.25;;
60370;SDS011;48550;40.588;49.684;2023-06-04T04:14:52;22.67;;;5.80;;
60370;SDS011;48550;40.588;49.684;2023-06-04T04:17:17;17.77;;;5.60;;
60370;SDS011;48550;40.588;49.684;2023-06-04T04:19:43;18.55;;;6.28;;
60370;SDS011;48550;40.588;49.684;2023-06-04T04:22:12;13.60;;;5.50;;
60370;SDS011;48550;40.588;49.684;2023-06-04T04:24:38;13.27;;;5.15;;
60370;SDS011;48550;40.588;49.684;2023-06-04T04:27:04;14.77;;;5.38;;
60370;SDS011;48550;40.588;49.684;2023-06-04T04:29:30;14.05;;;5.43;;
60370;SDS011;48550;40.588;49.684;2023-06-04T04:31:59;11.07;;;5.10;;
60370;SDS011;48550;40.588;49.684;2023-06-04T04:34:26;14.13;;;4.97;;
60370;SDS011;48550;40.588;49.684;2023-06-04T04:36:52;16.48;;;5.05;;
60370;SDS011;48550;40.588;49.684;2023-06-04T04:39:27;15.38;;;5.30;;
60370;SDS011;48550;40.588;49.684;2023-06-04T04:41:54;17.35;;;6.05;;
60370;SDS011;48550;40.588;49.684;2023-06-04T04:44:20;16.95;;;4.57;;
60370;SDS011;48550;40.588;49.684;2023-06-04T04:46:47;11.75;;;4.60;;
60370;SDS011;48550;40.588;49.684;2023-06-04T04:49:13;14.90;;;4.72;;
60370;SDS011;48550;40.588;49.684;2023-06-04T04:51:39;9.55;;;3.88;;
60370;SDS011;48550;40.588;49.684;2023-06-04T04:54:05;12.02;;;4.40;;
60370;SDS011;48550;40.588;49.684;2023-06-04T04:56:32;18.73;;;4.88;;
60370;SDS011;48550;40.588;49.684;2023-06-04T04:59:02;21.88;;;4.43;;
60370;SDS011;48550;40.588;49.684;2023-06-04T05:01:27;20.27;;;5.25;;
60370;SDS011;48550;40.588;49.684;2023-06-04T05:03:53;15.73;;;4.35;;
60370;SDS011;48550;40.588;49.684;2023-06-04T05:06:19;24.30;;;6.45;;
60370;SDS011;48550;40.588;49.684;2023-06-04T05:08:46;20.67;;;4.60;;
60370;SDS011;48550;40.588;49.684;2023-06-04T05:11:11;13.35;;;3.90;;
60370;SDS011;48550;40.588;49.684;2023-06-04T05:13:37;19.65;;;4.93;;
60370;SDS011;48550;40.588;49.684;2023-06-04T05:16:03;15.52;;;4.25;;
60370;SDS011;48550;40.588;49.684;2023-06-04T05:18:32;21.75;;;4.60;;
60370;SDS011;48550;40.588;49.684;2023-06-04T05:20:59;18.38;;;4.35;;
60370;SDS011;48550;40.588;49.684;2023-06-04T05:23:27;46.38;;;5.78;;
60370;SDS011;48550;40.588;49.684;2023-06-04T05:25:55;24.13;;;4.75;;
60370;SDS011;48550;40.588;49.684;2023-06-04T05:28:21;21.00;;;4.40;;
60370;SDS011;48550;40.588;49.684;2023-06-04T05:30:50;14.57;;;4.40;;
60370;SDS011;48550;40.588;49.684;2023-06-04T05:33:17;20.80;;;4.05;;
60370;SDS011;48550;40.588;49.684;2023-06-04T05:35:45;22.50;;;4.90;;
60370;SDS011;48550;40.588;49.684;2023-06-04T05:38:13;23.30;;;4.30;;
60370;SDS011;48550;40.588;49.684;2023-06-04T05:40:44;19.48;;;5.03;;
60370;SDS011;48550;40.588;49.684;2023-06-04T05:43:10;16.92;;;4.28;;
60370;SDS011;48550;40.588;49.684;2023-06-04T05:45:37;16.25;;;4.65;;
60370;SDS011;48550;40.588;49.684;2023-06-04T05:48:03;13.32;;;4.60;;
60370;SDS011;48550;40.588;49.684;2023-06-04T05:50:29;16.88;;;4.40;;
60370;SDS011;48550;40.588;49.684;2023-06-04T05:52:55;26.10;;;4.85;;
60370;SDS011;48550;40.588;49.684;2023-06-04T05:55:22;15.05;;;4.63;;
60370;SDS011;48550;40.588;49.684;2023-06-04T05:57:48;17.88;;;5.10;;
60370;SDS011;48550;40.588;49.684;2023-06-04T06:00:16;10.45;;;4.53;;
60370;SDS011;48550;40.588;49.684;2023-06-04T06:02:42;20.10;;;5.55;;
60370;SDS011;48550;40.588;49.684;2023-06-04T06:05:08;17.65;;;5.10;;
60370;SDS011;48550;40.588;49.684;2023-06-04T06:07:34;10.32;;;5.50;;
60370;SDS011;48550;40.588;49.684;2023-06-04T06:10:01;17.00;;;6.93;;
60370;SDS011;48550;40.588;49.684;2023-06-04T06:12:27;10.85;;;4.80;;
60370;SDS011;48550;40.588;49.684;2023-06-04T06:14:53;8.43;;;4.28;;
60370;SDS011;48550;40.588;49.684;2023-06-04T06:17:19;13.68;;;4.40;;
60370;SDS011;48550;40.588;49.684;2023-06-04T06:19:45;19.42;;;5.93;;
60370;SDS011;48550;40.588;49.684;2023-06-04T06:22:10;10.32;;;4.47;;
60370;SDS011;48550;40.588;49.684;2023-06-04T06:24:37;13.60;;;4.18;;
60370;SDS011;48550;40.588;49.684;2023-06-04T06:27:04;21.10;;;4.32;;
60370;SDS011;48550;40.588;49.684;2023-06-04T06:29:31;16.50;;;4.03;;
60370;SDS011;48550;40.588;49.684;2023-06-04T06:31:58;17.05;;;4.60;;
60370;SDS011;48550;40.588;49.684;2023-06-04T06:34:24;34.10;;;9.75;;
60370;SDS011;48550;40.588;49.684;2023-06-04T06:36:50;19.88;;;3.95;;
60370;SDS011;48550;40.588;49.684;2023-06-04T06:39:16;16.73;;;4.80;;
60370;SDS011;48550;40.588;49.684;2023-06-04T06:41:42;12.68;;;3.75;;
60370;SDS011;48550;40.588;49.684;2023-06-04T06:44:07;17.90;;;4.53;;
60370;SDS011;48550;40.588;49.684;2023-06-04T06:46:33;9.45;;;3.80;;
60370;SDS011;48550;40.588;49.684;2023-06-04T06:48:59;12.77;;;4.47;;
60370;SDS011;48550;40.588;49.684;2023-06-04T06:51:24;10.65;;;4.68;;
60370;SDS011;48550;40.588;49.684;2023-06-04T06:53:50;14.10;;;4.35;;
60370;SDS011;48550;40.588;49.684;2023-06-04T06:56:16;15.15;;;4.45;;
60370;SDS011;48550;40.588;49.684;2023-06-04T06:58:43;12.10;;;4.90;;
60370;SDS011;48550;40.588;49.684;2023-06-04T07:01:09;13.60;;;4.75;;
60370;SDS011;48550;40.588;49.684;2023-06-04T07:03:35;11.00;;;4.10;;
60370;SDS011;48550;40.588;49.684;2023-06-04T07:06:03;11.60;;;4.15;;
60370;SDS011;48550;40.588;49.684;2023-06-04T07:08:29;13.18;;;3.80;;
60370;SDS011;48550;40.588;49.684;2023-06-04T07:10:54;10.48;;;4.28;;
60370;SDS011;48550;40.588;49.684;2023-06-04T07:13:20;14.93;;;4.70;;
60370;SDS011;48550;40.588;49.684;2023-06-04T07:15:46;14.35;;;4.80;;
60370;SDS011;48550;40.588;49.684;2023-06-04T07:18:12;9.90;;;4.30;;
60370;SDS011;48550;40.588;49.684;2023-06-04T07:20:37;10.68;;;3.92;;
60370;SDS011;48550;40.588;49.684;2023-06-04T07:23:03;10.48;;;4.75;;
60370;SDS011;48550;40.588;49.684;2023-06-04T07:25:29;11.88;;;5.40;;
60370;SDS011;48550;40.588;49.684;2023-06-04T07:27:55;14.30;;;5.20;;
60370;SDS011;48550;40.588;49.684;2023-06-04T07:30:24;14.38;;;5.82;;
60370;SDS011;48550;40.588;49.684;2023-06-04T07:32:52;16.58;;;6.00;;
60370;SDS011;48550;40.588;49.684;2023-06-04T07:35:18;13.07;;;6.38;;
60370;SDS011;48550;40.588;49.684;2023-06-04T07:37:43;12.45;;;5.65;;
60370;SDS011;48550;40.588;49.684;2023-06-04T07:40:10;11.98;;;6.25;;
60370;SDS011;48550;40.588;49.684;2023-06-04T07:42:37;17.10;;;6.53;;
60370;SDS011;48550;40.588;49.684;2023-06-04T07:45:03;22.20;;;7.90;;
60370;SDS011;48550;40.588;49.684;2023-06-04T07:47:29;17.75;;;6.97;;
60370;SDS011;48550;40.588;49.684;2023-06-04T07:49:54;13.13;;;7.03;;
60370;SDS011;48550;40.588;49.684;2023-06-04T07:52:20;16.45;;;6.65;;
60370;SDS011;48550;40.588;49.684;2023-06-04T07:54:46;14.32;;;7.60;;
60370;SDS011;48550;40.588;49.684;2023-06-04T07:57:12;17.15;;;7.22;;
60370;SDS011;48550;40.588;49.684;2023-06-04T07:59:37;14.85;;;7.47;;
60370;SDS011;48550;40.588;49.684;2023-06-04T08:02:03;17.58;;;7.22;;
60370;SDS011;48550;40.588;49.684;2023-06-04T08:04:29;17.00;;;6.75;;
60370;SDS011;48550;40.588;49.684;2023-06-04T08:06:56;25.77;;;7.82;;
60370;SDS011;48550;40.588;49.684;2023-06-04T08:09:22;13.52;;;8.00;;
60370;SDS011;48550;40.588;49.684;2023-06-04T08:11:52;17.17;;;8.70;;
60370;SDS011;48550;40.588;49.684;2023-06-04T08:14:18;21.80;;;10.23;;
60370;SDS011;48550;40.588;49.684;2023-06-04T08:16:46;15.95;;;9.43;;
60370;SDS011;48550;40.588;49.684;2023-06-04T08:19:12;16.88;;;9.93;;
60370;SDS011;48550;40.588;49.684;2023-06-04T08:21:38;16.73;;;9.38;;
60370;SDS011;48550;40.588;49.684;2023-06-04T08:24:05;18.25;;;10.05;;
60370;SDS011;48550;40.588;49.684;2023-06-04T08:26:31;27.27;;;11.18;;
60370;SDS011;48550;40.588;49.684;2023-06-04T08:28:58;19.25;;;10.07;;
60370;SDS011;48550;40.588;49.684;2023-06-04T08:31:23;17.60;;;10.07;;
60370;SDS011;48550;40.588;49.684;2023-06-04T08:33:49;17.42;;;9.60;;
60370;SDS011;48550;40.588;49.684;2023-06-04T08:36:15;15.85;;;9.13;;
60370;SDS011;48550;40.588;49.684;2023-06-04T08:38:43;16.85;;;10.40;;
60370;SDS011;48550;40.588;49.684;2023-06-04T08:43:43;14.80;;;8.30;;
60370;SDS011;48550;40.588;49.684;2023-06-04T08:46:13;16.95;;;8.73;;
60370;SDS011;48550;40.588;49.684;2023-06-04T08:48:40;16.27;;;7.85;;
60370;SDS011;48550;40.588;49.684;2023-06-04T08:51:07;15.07;;;8.73;;
60370;SDS011;48550;40.588;49.684;2023-06-04T08:53:34;13.10;;;8.57;;
60370;SDS011;48550;40.588;49.684;2023-06-04T08:56:01;13.07;;;8.10;;
60370;SDS011;48550;40.588;49.684;2023-06-04T08:58:30;19.77;;;9.00;;
60370;SDS011;48550;40.588;49.684;2023-06-04T09:00:59;15.48;;;8.95;;
60370;SDS011;48550;40.588;49.684;2023-06-04T09:03:26;14.90;;;9.15;;
60370;SDS011;48550;40.588;49.684;2023-06-04T09:05:53;15.65;;;8.77;;
60370;SDS011;48550;40.588;49.684;2023-06-04T09:08:20;16.88;;;7.88;;
60370;SDS011;48550;40.588;49.684;2023-06-04T09:10:48;13.80;;;8.32;;
60370;SDS011;48550;40.588;49.684;2023-06-04T09:13:17;13.30;;;8.52;;
60370;SDS011;48550;40.588;49.684;2023-06-04T09:15:57;14.30;;;8.98;;
60370;SDS011;48550;40.588;49.684;2023-06-04T09:18:25;15.60;;;8.60;;
60370;SDS011;48550;40.588;49.684;2023-06-04T09:21:04;18.00;;;9.43;;
60370;SDS011;48550;40.588;49.684;2023-06-04T09:23:45;19.97;;;8.77;;
60370;SDS011;48550;40.588;49.684;2023-06-04T09:26:12;15.40;;;9.45;;
60370;SDS011;48550;40.588;49.684;2023-06-04T09:28:39;14.80;;;8.70;;
60370;SDS011;48550;40.588;49.684;2023-06-04T09:31:18;15.13;;;8.82;;
60370;SDS011;48550;40.588;49.684;2023-06-04T09:33:48;16.25;;;10.73;;
60370;SDS011;48550;40.588;49.684;2023-06-04T09:36:15;16.73;;;8.02;;
60370;SDS011;48550;40.588;49.684;2023-06-04T09:38:41;14.23;;;8.10;;
60370;SDS011;48550;40.588;49.684;2023-06-04T09:41:13;15.68;;;8.05;;
60370;SDS011;48550;40.588;49.684;2023-06-04T09:43:41;16.42;;;8.45;;
60370;SDS011;48550;40.588;49.684;2023-06-04T09:46:15;12.00;;;7.90;;
60370;SDS011;48550;40.588;49.684;2023-06-04T09:48:43;11.75;;;6.95;;
60370;SDS011;48550;40.588;49.684;2023-06-04T09:51:18;21.95;;;15.00;;
60370;SDS011;48550;40.588;49.684;2023-06-04T09:53:55;14.82;;;7.45;;
60370;SDS011;48550;40.588;49.684;2023-06-04T09:56:22;15.55;;;7.47;;
60370;SDS011;48550;40.588;49.684;2023-06-04T09:58:48;11.77;;;7.45;;
60370;SDS011;48550;40.588;49.684;2023-06-04T10:01:15;13.35;;;7.38;;
60370;SDS011;48550;40.588;49.684;2023-06-04T10:03:42;12.30;;;7.22;;
60370;SDS011;48550;40.588;49.684;2023-06-04T10:06:13;13.38;;;8.13;;
60370;SDS011;48550;40.588;49.684;2023-06-04T10:08:44;19.80;;;8.23;;
60370;SDS011;48550;40.588;49.684;2023-06-04T10:11:11;20.55;;;7.82;;
60370;SDS011;48550;40.588;49.684;2023-06-04T10:13:40;17.38;;;8.40;;
60370;SDS011;48550;40.588;49.684;2023-06-04T10:16:13;14.65;;;7.40;;
60370;SDS011;48550;40.588;49.684;2023-06-04T10:18:39;22.67;;;7.45;;
60370;SDS011;48550;40.588;49.684;2023-06-04T10:21:06;13.13;;;7.28;;
60370;SDS011;48550;40.588;49.684;2023-06-04T10:23:34;14.00;;;7.53;;
60370;SDS011;48550;40.588;49.684;2023-06-04T10:26:00;15.32;;;7.57;;
60370;SDS011;48550;40.588;49.684;2023-06-04T10:28:27;11.55;;;7.35;;
60370;SDS011;48550;40.588;49.684;2023-06-04T10:30:53;17.45;;;7.20;;
60370;SDS011;48550;40.588;49.684;2023-06-04T10:33:20;15.27;;;7.75;;
60370;SDS011;48550;40.588;49.684;2023-06-04T10:35:50;12.73;;;7.38;;
60370;SDS011;48550;40.588;49.684;2023-06-04T10:38:23;18.77;;;7.63;;
60370;SDS011;48550;40.588;49.684;2023-06-04T10:40:49;15.50;;;8.05;;
60370;SDS011;48550;40.588;49.684;2023-06-04T10:43:15;12.90;;;7.95;;
60370;SDS011;48550;40.588;49.684;2023-06-04T10:45:41;14.27;;;7.13;;
60370;SDS011;48550;40.588;49.684;2023-06-04T10:48:10;13.80;;;7.57;;
60370;SDS011;48550;40.588;49.684;2023-06-04T10:50:52;17.70;;;8.23;;
60370;SDS011;48550;40.588;49.684;2023-06-04T10:53:18;17.02;;;7.70;;
60370;SDS011;48550;40.588;49.684;2023-06-04T10:55:45;17.30;;;7.90;;
60370;SDS011;48550;40.588;49.684;2023-06-04T10:58:12;14.30;;;7.32;;
60370;SDS011;48550;40.588;49.684;2023-06-04T11:00:39;10.70;;;7.25;;
60370;SDS011;48550;40.588;49.684;2023-06-04T11:03:14;16.10;;;7.35;;
60370;SDS011;48550;40.588;49.684;2023-06-04T11:05:42;11.05;;;7.63;;
60370;SDS011;48550;40.588;49.684;2023-06-04T11:08:09;13.88;;;7.70;;
60370;SDS011;48550;40.588;49.684;2023-06-04T11:10:40;13.98;;;7.32;;
60370;SDS011;48550;40.588;49.684;2023-06-04T11:13:10;12.55;;;7.60;;
60370;SDS011;48550;40.588;49.684;2023-06-04T11:15:43;11.07;;;7.18;;
60370;SDS011;48550;40.588;49.684;2023-06-04T11:18:13;12.65;;;7.57;;
60370;SDS011;48550;40.588;49.684;2023-06-04T11:20:40;13.40;;;7.68;;
60370;SDS011;48550;40.588;49.684;2023-06-04T11:23:07;13.32;;;7.63;;
60370;SDS011;48550;40.588;49.684;2023-06-04T11:25:33;12.15;;;7.35;;
60370;SDS011;48550;40.588;49.684;2023-06-04T11:27:59;12.40;;;7.70;;
60370;SDS011;48550;40.588;49.684;2023-06-04T11:30:26;16.45;;;7.53;;
60370;SDS011;48550;40.588;49.684;2023-06-04T11:35:28;16.90;;;7.90;;
60370;SDS011;48550;40.588;49.684;2023-06-04T11:37:55;12.13;;;7.13;;
60370;SDS011;48550;40.588;49.684;2023-06-04T11:40:21;17.60;;;7.40;;
60370;SDS011;48550;40.588;49.684;2023-06-04T11:42:48;13.73;;;7.30;;
60370;SDS011;48550;40.588;49.684;2023-06-04T11:45:15;19.55;;;8.40;;
60370;SDS011;48550;40.588;49.684;2023-06-04T11:47:51;15.93;;;7.38;;
60370;SDS011;48550;40.588;49.684;2023-06-04T11:50:22;11.50;;;7.00;;
60370;SDS011;48550;40.588;49.684;2023-06-04T11:52:52;11.07;;;7.15;;
60370;SDS011;48550;40.588;49.684;2023-06-04T11:55:18;13.10;;;7.53;;
60370;SDS011;48550;40.588;49.684;2023-06-04T11:57:49;14.60;;;7.70;;
60370;SDS011;48550;40.588;49.684;2023-06-04T12:00:15;12.73;;;7.47;;
60370;SDS011;48550;40.588;49.684;2023-06-04T12:02:49;11.18;;;6.85;;
60370;SDS011;48550;40.588;49.684;2023-06-04T12:05:17;10.93;;;7.55;;
60370;SDS011;48550;40.588;49.684;2023-06-04T12:07:45;11.95;;;6.90;;
60370;SDS011;48550;40.588;49.684;2023-06-04T12:10:12;16.00;;;8.48;;
60370;SDS011;48550;40.588;49.684;2023-06-04T12:12:38;11.25;;;6.75;;
60370;SDS011;48550;40.588;49.684;2023-06-04T12:15:07;16.38;;;7.78;;
60370;SDS011;48550;40.588;49.684;2023-06-04T12:17:35;9.95;;;6.63;;
60370;SDS011;48550;40.588;49.684;2023-06-04T12:20:14;10.75;;;6.90;;
60370;SDS011;48550;40.588;49.684;2023-06-04T12:22:46;15.20;;;7.47;;
60370;SDS011;48550;40.588;49.684;2023-06-04T12:25:23;10.85;;;6.97;;
60370;SDS011;48550;40.588;49.684;2023-06-04T12:27:51;11.50;;;7.63;;
60370;SDS011;48550;40.588;49.684;2023-06-04T12:30:16;17.60;;;7.35;;
60370;SDS011;48550;40.588;49.684;2023-06-04T12:32:42;12.45;;;7.63;;
60370;SDS011;48550;40.588;49.684;2023-06-04T12:35:09;14.23;;;7.47;;
60370;SDS011;48550;40.588;49.684;2023-06-04T12:37:34;10.77;;;7.38;;
60370;SDS011;48550;40.588;49.684;2023-06-04T12:40:00;15.73;;;8.63;;
60370;SDS011;48550;40.588;49.684;2023-06-04T12:42:26;12.00;;;7.15;;
60370;SDS011;48550;40.588;49.684;2023-06-04T12:44:54;13.38;;;6.70;;
60370;SDS011;48550;40.588;49.684;2023-06-04T12:47:20;12.02;;;6.75;;
60370;SDS011;48550;40.588;49.684;2023-06-04T12:49:46;15.82;;;9.43;;
60370;SDS011;48550;40.588;49.684;2023-06-04T12:52:12;12.95;;;6.88;;
60370;SDS011;48550;40.588;49.684;2023-06-04T12:54:41;10.68;;;7.00;;
60370;SDS011;48550;40.588;49.684;2023-06-04T12:57:07;11.85;;;6.75;;
60370;SDS011;48550;40.588;49.684;2023-06-04T12:59:33;10.07;;;6.80;;
60370;SDS011;48550;40.588;49.684;2023-06-04T13:01:59;10.48;;;6.72;;
60370;SDS011;48550;40.588;49.684;2023-06-04T13:04:24;15.45;;;7.03;;
60370;SDS011;48550;40.588;49.684;2023-06-04T13:06:51;8.95;;;6.43;;
60370;SDS011;48550;40.588;49.684;2023-06-04T13:09:24;13.00;;;7.25;;
60370;SDS011;48550;40.588;49.684;2023-06-04T13:11:50;13.70;;;7.28;;
60370;SDS011;48550;40.588;49.684;2023-06-04T13:14:16;12.60;;;7.10;;
60370;SDS011;48550;40.588;49.684;2023-06-04T13:16:42;13.38;;;6.70;;
60370;SDS011;48550;40.588;49.684;2023-06-04T13:19:10;14.07;;;6.43;;
60370;SDS011;48550;40.588;49.684;2023-06-04T13:21:35;10.90;;;7.07;;
60370;SDS011;48550;40.588;49.684;2023-06-04T13:24:01;11.38;;;6.50;;
60370;SDS011;48550;40.588;49.684;2023-06-04T13:26:27;10.18;;;6.82;;
60370;SDS011;48550;40.588;49.684;2023-06-04T13:28:53;12.98;;;6.13;;
60370;SDS011;48550;40.588;49.684;2023-06-04T13:31:19;14.57;;;6.20;;
60370;SDS011;48550;40.588;49.684;2023-06-04T13:33:44;13.13;;;6.63;;
60370;SDS011;48550;40.588;49.684;2023-06-04T13:36:10;12.70;;;6.88;;
60370;SDS011;48550;40.588;49.684;2023-06-04T13:38:36;13.50;;;6.93;;
60370;SDS011;48550;40.588;49.684;2023-06-04T13:41:01;11.10;;;6.30;;
60370;SDS011;48550;40.588;49.684;2023-06-04T13:43:27;11.68;;;6.07;;
60370;SDS011;48550;40.588;49.684;2023-06-04T13:45:53;10.75;;;7.00;;
60370;SDS011;48550;40.588;49.684;2023-06-04T13:48:18;14.35;;;7.20;;
60370;SDS011;48550;40.588;49.684;2023-06-04T13:50:44;18.38;;;7.88;;
60370;SDS011;48550;40.588;49.684;2023-06-04T13:53:10;12.85;;;7.68;;
60370;SDS011;48550;40.588;49.684;2023-06-04T13:55:38;12.38;;;7.30;;
60370;SDS011;48550;40.588;49.684;2023-06-04T13:58:04;14.20;;;7.38;;
60370;SDS011;48550;40.588;49.684;2023-06-04T14:00:30;12.30;;;7.78;;
60370;SDS011;48550;40.588;49.684;2023-06-04T14:02:56;12.60;;;8.05;;
60370;SDS011;48550;40.588;49.684;2023-06-04T14:05:24;13.70;;;8.23;;
60370;SDS011;48550;40.588;49.684;2023-06-04T14:07:52;13.60;;;7.85;;
60370;SDS011;48550;40.588;49.684;2023-06-04T14:10:18;11.95;;;8.32;;
60370;SDS011;48550;40.588;49.684;2023-06-04T14:12:44;15.15;;;8.68;;
60370;SDS011;48550;40.588;49.684;2023-06-04T14:15:10;14.43;;;8.35;;
60370;SDS011;48550;40.588;49.684;2023-06-04T14:17:37;18.27;;;8.98;;
60370;SDS011;48550;40.588;49.684;2023-06-04T14:20:04;13.43;;;8.48;;
60370;SDS011;48550;40.588;49.684;2023-06-04T14:22:35;13.38;;;8.70;;
60370;SDS011;48550;40.588;49.684;2023-06-04T14:25:05;11.68;;;8.55;;
60370;SDS011;48550;40.588;49.684;2023-06-04T14:27:32;12.77;;;8.05;;
60370;SDS011;48550;40.588;49.684;2023-06-04T14:29:59;20.30;;;10.30;;
60370;SDS011;48550;40.588;49.684;2023-06-04T14:32:25;15.77;;;8.13;;